Time;durP1;ratioP1;P1;durP2;ratioP2;P2;SDS_P1;SDS_P2;PMS_P1;PMS_P2;Temp;Humidity;BMP_temperature;BMP_pressure;BME280_temperature;BME280_humidity;BME280_pressure;Samples;Min_cycle;Max_cycle;Signal;HPM_P1;HPM_P2
2022/04/13 00:00:42;;;;;;;13.83;10.20;;;;;;;19.80;50.55;98646.53;4123559;28;20272;-64
2022/04/13 00:02:44;;;;;;;13.03;10.50;;;;;;;20.37;49.43;98619.28;4125606;28;20237;-64
2022/04/13 00:04:46;;;;;;;11.73;10.23;;;;;;;20.38;49.51;98630.88;4124337;28;20292;-65
2022/04/13 00:06:47;;;;;;;12.27;10.27;;;;;;;20.38;49.72;98641.69;4120684;28;20264;-65
2022/04/13 00:08:50;;;;;;;15.30;10.30;;;;;;;20.12;49.50;98667.50;4123505;28;20984;-66
2022/04/13 00:10:51;;;;;;;12.40;9.10;;;;;;;20.20;49.65;98672.47;4126447;28;20915;-65
2022/04/13 00:12:53;;;;;;;13.47;9.83;;;;;;;20.09;49.63;98690.38;4141153;28;20284;-65
2022/04/13 00:14:55;;;;;;;10.70;9.50;;;;;;;20.15;49.47;98678.59;4141666;28;20237;-65
2022/04/13 00:16:57;;;;;;;9.83;8.80;;;;;;;20.46;48.60;98654.75;4140590;28;20245;-65
2022/04/13 00:18:58;;;;;;;13.97;8.67;;;;;;;20.63;48.18;98649.28;4139214;28;20316;-64
2022/04/13 00:21:00;;;;;;;12.13;8.80;;;;;;;20.54;48.06;98651.59;4141826;28;20264;-66
2022/04/13 00:23:02;;;;;;;12.83;8.80;;;;;;;20.80;47.88;98644.63;4138834;28;20317;-64
2022/04/13 00:25:04;;;;;;;11.80;9.43;;;;;;;20.90;47.55;98643.09;4141202;28;20715;-64
2022/04/13 00:27:06;;;;;;;13.23;8.47;;;;;;;20.58;48.46;98668.13;4136703;28;20265;-65
2022/04/13 00:29:07;;;;;;;11.57;9.73;;;;;;;20.50;48.62;98672.09;4133716;28;20240;-64
2022/04/13 00:31:09;;;;;;;10.37;8.07;;;;;;;20.11;48.95;98717.97;4138596;28;20261;-65
2022/04/13 00:33:11;;;;;;;11.43;8.33;;;;;;;19.83;49.62;98743.13;4134248;28;20236;-65
2022/04/13 00:35:12;;;;;;;11.23;8.90;;;;;;;20.32;48.86;98681.28;4142532;28;20639;-64
2022/04/13 00:37:14;;;;;;;10.73;9.13;;;;;;;20.19;48.75;98701.31;4130122;28;20230;-65
2022/04/13 00:39:16;;;;;;;10.33;8.43;;;;;;;20.04;48.50;98720.00;4133026;28;20324;-65
2022/04/13 00:41:17;;;;;;;12.13;8.27;;;;;;;20.39;47.88;98684.63;4139132;28;20245;-64
2022/04/13 00:43:19;;;;;;;9.73;8.30;;;;;;;19.65;49.45;98754.97;4141612;28;20252;-66
2022/04/13 00:45:21;;;;;;;11.30;8.90;;;;;;;19.86;49.93;98745.34;4144354;28;20253;-65
2022/04/13 00:47:22;;;;;;;11.27;7.60;;;;;;;18.87;51.13;98801.16;4137709;28;20668;-65
2022/04/13 00:49:25;;;;;;;9.63;7.80;;;;;;;18.11;54.04;98827.09;4142578;28;20260;-65
2022/04/13 00:51:28;;;;;;;10.43;9.20;;;;;;;17.45;55.58;98848.47;4140869;28;20231;-65
2022/04/13 00:53:31;;;;;;;9.03;7.83;;;;;;;18.81;52.06;98760.84;4139459;28;20718;-68
2022/04/13 00:55:37;;;;;;;9.30;7.77;;;;;;;18.45;52.42;98787.00;4143497;28;20230;-65
2022/04/13 00:57:40;;;;;;;11.87;8.13;;;;;;;18.56;53.02;98738.53;4141356;28;20715;-65
2022/04/13 00:59:44;;;;;;;12.60;8.43;;;;;;;17.54;55.47;98851.66;4135805;28;20260;-65
2022/04/13 01:01:48;;;;;;;11.83;9.07;;;;;;;17.31;55.93;98785.19;4134436;28;20229;-65
2022/04/13 01:03:51;;;;;;;11.77;8.67;;;;;;;17.60;54.28;98811.25;4140618;28;20306;-65
2022/04/13 01:05:53;;;;;;;10.57;8.97;;;;;;;18.13;54.71;98753.16;4135007;28;20260;-65
2022/04/13 01:07:56;;;;;;;10.87;8.77;;;;;;;18.21;54.02;98747.44;4142699;28;20260;-65
2022/04/13 01:10:00;;;;;;;10.10;7.97;;;;;;;16.61;56.17;98883.81;4141619;28;20230;-65
2022/04/13 01:12:03;;;;;;;13.33;9.40;;;;;;;17.99;54.62;98782.13;4141304;28;20260;-65
2022/04/13 01:14:05;;;;;;;10.67;8.20;;;;;;;18.47;53.36;98750.69;4141805;28;20312;-65
2022/04/13 01:16:07;;;;;;;9.27;7.73;;;;;;;17.83;53.32;98807.81;4142357;28;20801;-65
2022/04/13 01:18:09;;;;;;;12.97;8.20;;;;;;;16.81;55.07;98858.66;4138692;28;20224;-65
2022/04/13 01:20:11;;;;;;;12.47;10.77;;;;;;;18.49;53.10;98721.69;4141587;28;20257;-65
2022/04/13 01:22:17;;;;;;;11.20;8.13;;;;;;;18.23;53.39;98766.03;4130823;28;20316;-65
2022/04/13 01:24:21;;;;;;;10.67;8.77;;;;;;;16.05;57.77;98909.56;4140400;28;20797;-64
2022/04/13 01:26:22;;;;;;;10.10;8.67;;;;;;;17.60;55.32;98767.44;4142831;28;20288;-64
2022/04/13 01:28:24;;;;;;;11.77;8.97;;;;;;;18.27;53.72;98731.41;4142964;28;20254;-66
2022/04/13 01:30:31;;;;;;;9.43;8.43;;;;;;;18.01;53.19;98780.00;4137858;28;20276;-64
2022/04/13 01:32:33;;;;;;;11.87;9.23;;;;;;;17.61;54.83;98815.56;4144578;28;20232;-64
2022/04/13 01:34:34;;;;;;;11.50;8.43;;;;;;;17.60;55.40;98805.88;4138594;28;20229;-64
2022/04/13 01:36:37;;;;;;;12.93;8.70;;;;;;;18.80;52.12;98722.31;4141772;28;20328;-58
2022/04/13 01:38:38;;;;;;;10.73;8.37;;;;;;;17.39;56.12;98830.53;4140185;28;20237;-64
2022/04/13 01:40:40;;;;;;;11.20;8.20;;;;;;;18.51;53.53;98740.28;4139895;28;20238;-64
2022/04/13 01:42:42;;;;;;;11.93;8.10;;;;;;;19.26;51.54;98692.78;4139554;28;20269;-64
2022/04/13 01:44:45;;;;;;;12.47;8.20;;;;;;;18.24;53.59;98799.13;4136448;28;20683;-65
2022/04/13 01:46:47;;;;;;;11.27;8.53;;;;;;;15.26;61.41;98957.88;4131355;28;20620;-65
2022/04/13 01:48:49;;;;;;;10.67;7.73;;;;;;;15.33;61.98;98890.88;4142003;28;20249;-64
2022/04/13 01:50:50;;;;;;;11.00;8.30;;;;;;;15.98;59.86;98884.66;4143715;28;20261;-64
2022/04/13 01:52:52;;;;;;;12.47;7.13;;;;;;;15.29;62.24;98865.56;4137095;28;20237;-64
2022/04/13 01:54:54;;;;;;;9.43;7.17;;;;;;;17.87;55.18;98721.28;4131744;28;20368;-64
2022/04/13 01:56:57;;;;;;;11.97;7.63;;;;;;;18.68;53.10;98687.34;4131538;28;20272;-65
2022/04/13 01:59:00;;;;;;;8.83;6.13;;;;;;;17.70;54.57;98828.69;4137745;28;20283;-65
2022/04/13 02:01:01;;;;;;;10.90;6.90;;;;;;;16.34;57.67;98910.00;4139665;28;20239;-65
2022/04/13 02:03:03;;;;;;;11.87;6.10;;;;;;;17.93;54.70;98761.53;4130999;28;20234;-65
2022/04/13 02:05:07;;;;;;;8.37;6.33;;;;;;;18.53;52.50;98728.22;4130753;28;20230;-65
2022/04/13 02:07:09;;;;;;;13.07;6.33;;;;;;;18.88;51.77;98710.38;4130901;28;20268;-65
2022/04/13 02:09:10;;;;;;;12.10;6.13;;;;;;;17.98;54.07;98804.69;4135503;28;20311;-65
2022/04/13 02:11:12;;;;;;;11.13;8.60;;;;;;;17.85;53.97;98840.69;4141327;28;20225;-65
2022/04/13 02:13:14;;;;;;;13.83;7.77;;;;;;;17.53;54.69;98836.56;4143973;28;20308;-65
2022/04/13 02:15:16;;;;;;;12.53;8.40;;;;;;;17.63;55.44;98835.00;4137523;28;20806;-65
2022/04/13 02:17:19;;;;;;;9.07;6.53;;;;;;;17.89;54.16;98806.06;4138297;28;20233;-65
2022/04/13 02:19:21;;;;;;;8.80;6.63;;;;;;;17.72;54.12;98845.44;4133746;28;20673;-65
2022/04/13 02:21:23;;;;;;;10.80;7.60;;;;;;;17.84;54.57;98803.25;4138195;28;20714;-64
2022/04/13 02:23:24;;;;;;;10.47;7.27;;;;;;;18.81;51.83;98739.28;4132303;28;20238;-65
2022/04/13 02:25:26;;;;;;;9.30;7.20;;;;;;;17.34;55.09;98876.88;4140043;28;20263;-65
2022/04/13 02:27:28;;;;;;;10.60;7.00;;;;;;;16.99;56.35;98884.69;4142090;28;20260;-65
2022/04/13 02:29:30;;;;;;;10.40;7.40;;;;;;;17.76;54.67;98798.19;4136139;28;20766;-65
2022/04/13 02:31:32;;;;;;;10.77;6.93;;;;;;;17.95;54.19;98785.50;4147695;28;20320;-65
2022/04/13 02:33:33;;;;;;;10.53;7.33;;;;;;;17.44;54.81;98841.44;4140199;28;20239;-65
2022/04/13 02:35:35;;;;;;;10.27;6.87;;;;;;;17.33;55.21;98848.41;4135549;28;20251;-65
2022/04/13 02:37:38;;;;;;;9.90;6.90;;;;;;;17.52;54.33;98822.31;4135613;28;20253;-65
2022/04/13 02:39:40;;;;;;;9.27;6.20;;;;;;;17.75;54.09;98797.41;4141708;28;20256;-64
2022/04/13 02:41:41;;;;;;;11.57;5.97;;;;;;;18.36;52.00;98759.63;4140646;28;20732;-65
2022/04/13 02:43:43;;;;;;;9.57;6.27;;;;;;;17.93;52.64;98814.50;4139953;28;20249;-66
2022/04/13 02:45:45;;;;;;;10.77;6.60;;;;;;;17.67;54.10;98844.22;4126239;28;20266;-65
2022/04/13 02:47:46;;;;;;;11.37;6.50;;;;;;;17.97;52.77;98799.53;4135893;28;20287;-65
2022/04/13 02:49:48;;;;;;;8.33;5.77;;;;;;;18.25;51.21;98766.63;4141962;28;20241;-65
2022/04/13 02:51:49;;;;;;;8.07;5.43;;;;;;;17.60;52.60;98848.06;4140292;28;20770;-65
2022/04/13 02:53:51;;;;;;;7.87;5.07;;;;;;;17.57;52.51;98846.66;4130677;28;20284;-66
2022/04/13 02:55:53;;;;;;;10.00;5.40;;;;;;;17.92;52.43;98807.47;4128620;28;20291;-65
2022/04/13 02:57:55;;;;;;;8.63;5.17;;;;;;;17.56;52.58;98850.38;4142109;28;20276;-64
2022/04/13 02:59:56;;;;;;;9.00;5.63;;;;;;;17.16;53.73;98871.50;4142695;28;20229;-65
2022/04/13 03:01:58;;;;;;;8.27;5.90;;;;;;;18.39;51.12;98761.81;4140407;28;20295;-65
2022/04/13 03:04:02;;;;;;;12.70;6.30;;;;;;;18.24;51.15;98786.53;4140951;28;20803;-65
2022/04/13 03:06:03;;;;;;;13.43;6.60;;;;;;;16.44;55.70;98923.75;4141534;28;20240;-65
2022/04/13 03:08:06;;;;;;;9.73;5.73;;;;;;;16.69;55.01;98902.31;4132278;28;20752;-65
2022/04/13 03:10:08;;;;;;;12.03;6.10;;;;;;;18.34;51.14;98749.09;4136401;28;20229;-65
2022/04/13 03:12:12;;;;;;;12.80;6.93;;;;;;;18.55;49.84;98757.59;4140559;28;20272;-65
2022/04/13 03:14:13;;;;;;;11.30;6.30;;;;;;;18.51;50.42;98773.41;4137406;28;20768;-65
2022/04/13 03:18:24;;;;;;;9.63;5.57;;;;;;;19.10;48.86;98746.41;4125063;28;20292;-32
2022/04/13 03:20:26;;;;;;;10.63;5.27;;;;;;;18.62;49.95;98785.22;4119145;28;20300;-33
2022/04/13 03:22:28;;;;;;;10.10;5.77;;;;;;;17.40;51.95;98892.13;4109807;28;20231;-31
2022/04/13 03:24:29;;;;;;;11.67;5.37;;;;;;;17.32;52.60;98888.94;4104244;28;20238;-34
2022/04/13 03:26:31;;;;;;;9.50;5.10;;;;;;;16.86;53.88;98917.88;4112504;28;20234;-30
2022/04/13 03:28:33;;;;;;;7.57;5.20;;;;;;;17.55;52.17;98851.44;4108465;28;20270;-33
2022/04/13 03:30:35;;;;;;;8.23;4.77;;;;;;;16.93;53.06;98906.00;4112295;28;20242;-33
2022/04/13 03:32:37;;;;;;;8.67;5.70;;;;;;;17.08;53.00;98878.81;4125062;28;20292;-32
2022/04/13 03:34:39;;;;;;;12.03;5.93;;;;;;;17.74;51.76;98821.81;4125367;28;20238;-33
2022/04/13 03:36:40;;;;;;;9.70;5.20;;;;;;;16.49;52.95;98929.31;4122727;28;20230;-36
2022/04/13 03:38:42;;;;;;;9.10;5.17;;;;;;;17.07;52.26;98879.84;4123939;28;20759;-37
2022/04/13 03:40:44;;;;;;;9.47;4.77;;;;;;;16.21;55.54;98912.78;4125247;28;20234;-34
2022/04/13 03:42:46;;;;;;;8.70;5.47;;;;;;;17.39;52.10;98822.47;4124019;28;20233;-35
2022/04/13 03:44:47;;;;;;;10.33;5.53;;;;;;;16.10;54.70;98939.25;4126644;28;20233;-38
2022/04/13 03:46:50;;;;;;;8.10;6.20;;;;;;;15.73;56.81;98968.50;4128738;28;20233;-34
2022/04/13 03:48:52;;;;;;;13.00;5.93;;;;;;;17.48;51.90;98805.00;4128574;28;20675;-34
2022/04/13 03:50:55;;;;;;;11.80;5.40;;;;;;;16.19;55.16;98919.16;4126663;28;20230;-33
2022/04/13 03:52:57;;;;;;;10.63;6.20;;;;;;;17.16;52.91;98834.72;4127865;28;20238;-34
2022/04/13 03:55:00;;;;;;;12.37;6.33;;;;;;;16.97;53.56;98849.19;4128844;28;20315;-35
2022/04/13 03:57:02;;;;;;;11.53;5.83;;;;;;;16.55;54.00;98908.81;4127048;28;20230;-36
2022/04/13 03:59:07;;;;;;;12.23;6.33;;;;;;;17.61;51.60;98807.50;4128401;28;20226;-36
2022/04/13 04:01:12;;;;;;;9.93;6.80;;;;;;;17.82;51.14;98792.72;4125245;28;20238;-32
2022/04/13 04:03:14;;;;;;;8.30;6.07;;;;;;;15.86;55.54;98961.41;4128318;28;20253;-30
2022/04/13 04:05:17;;;;;;;12.10;5.90;;;;;;;15.90;55.63;98935.84;4127482;28;20265;-32
2022/04/13 04:07:18;;;;;;;8.40;4.97;;;;;;;16.02;54.14;98917.22;4127059;28;20238;-39
2022/04/13 04:09:20;;;;;;;9.30;5.10;;;;;;;16.86;52.53;98856.94;4127155;28;20813;-33
2022/04/13 04:11:22;;;;;;;10.10;4.70;;;;;;;16.95;52.53;98856.66;4125384;28;20226;-31
2022/04/13 04:13:23;;;;;;;7.93;5.10;;;;;;;17.01;52.27;98848.53;4126579;28;20602;-32
2022/04/13 04:15:25;;;;;;;10.10;5.10;;;;;;;17.38;51.34;98816.31;4125356;28;20333;-33
2022/04/13 04:17:27;;;;;;;8.43;5.40;;;;;;;16.96;53.04;98879.75;4130470;28;20222;-37
2022/04/13 04:19:29;;;;;;;8.90;5.60;;;;;;;17.51;51.51;98807.22;4128310;28;20698;-33
2022/04/13 04:21:31;;;;;;;7.80;4.63;;;;;;;16.69;53.24;98899.63;4124307;28;20226;-35
2022/04/13 04:23:33;;;;;;;8.40;4.97;;;;;;;17.72;50.86;98805.09;4125538;28;20248;-37
2022/04/13 04:25:34;;;;;;;7.77;5.07;;;;;;;16.16;54.66;98948.28;4125811;28;20226;-35
2022/04/13 04:27:36;;;;;;;10.13;5.37;;;;;;;16.67;53.73;98901.72;4129279;28;20234;-37
2022/04/13 04:29:38;;;;;;;8.33;5.40;;;;;;;15.90;54.60;98947.38;4127153;28;20231;-34
2022/04/13 04:31:53;;;;;;;7.90;4.93;;;;;;;15.66;56.13;98969.53;4126615;28;20682;-32
2022/04/13 04:33:55;;;;;;;11.67;5.60;;;;;;;15.70;56.58;98962.72;4129658;28;20233;-34
2022/04/13 04:35:56;;;;;;;10.33;5.93;;;;;;;16.91;52.89;98834.78;4129533;28;20280;-32
2022/04/13 04:37:59;;;;;;;9.40;5.40;;;;;;;16.54;53.14;98893.78;4116478;28;20234;-30
2022/04/13 04:40:02;;;;;;;7.93;4.77;;;;;;;15.25;57.14;98982.16;4123544;28;20331;-31
2022/04/13 04:42:05;;;;;;;8.00;5.37;;;;;;;12.84;63.11;99041.81;4118862;28;20271;-33
2022/04/13 04:44:10;;;;;;;8.87;5.87;;;;;;;11.80;67.36;98962.16;4129689;28;20777;-33
2022/04/13 04:46:12;;;;;;;11.87;6.40;;;;;;;15.15;58.30;98848.72;4129528;28;20612;-34
2022/04/13 04:48:14;;;;;;;9.33;5.67;;;;;;;15.42;57.49;98870.03;4107981;28;20610;-35
2022/04/13 04:50:18;;;;;;;9.07;5.27;;;;;;;16.55;54.32;98801.47;4110173;28;20234;-37
2022/04/13 04:52:19;;;;;;;7.83;4.90;;;;;;;16.82;53.05;98820.00;4111162;28;20226;-33
2022/04/13 04:54:21;;;;;;;9.07;5.40;;;;;;;17.47;51.67;98760.38;4110529;28;20226;-31
2022/04/13 04:56:23;;;;;;;10.90;6.03;;;;;;;15.94;55.10;98910.25;4109813;28;20304;-30
2022/04/13 04:58:26;;;;;;;7.93;4.67;;;;;;;16.13;54.82;98887.88;4128926;28;20226;-34
2022/04/13 05:00:28;;;;;;;8.90;5.07;;;;;;;15.28;54.57;98949.63;4104482;28;20238;-37
2022/04/13 05:02:30;;;;;;;6.67;4.10;;;;;;;16.52;52.89;98837.66;4124570;28;20234;-36
2022/04/13 05:04:32;;;;;;;7.20;4.77;;;;;;;16.42;53.14;98869.50;4110163;28;20614;-31
2022/04/13 05:06:33;;;;;;;8.53;4.60;;;;;;;16.00;54.60;98910.22;4125375;28;20237;-40
2022/04/13 05:08:35;;;;;;;6.87;4.90;;;;;;;15.57;55.52;98950.16;4113018;28;20227;-36
2022/04/13 05:10:37;;;;;;;5.87;4.27;;;;;;;16.85;52.61;98820.38;4125568;28;20310;-31
2022/04/13 05:12:56;;;;;;;6.17;4.17;;;;;;;15.11;55.24;98946.56;4110725;28;20390;-32
2022/04/13 05:15:02;;;;;;;7.33;4.40;;;;;;;16.99;52.53;98814.88;4122008;28;20242;-32
2022/04/13 05:17:04;;;;;;;7.80;5.47;;;;;;;17.42;51.82;98797.84;4117382;28;20276;-37
2022/04/13 05:19:06;;;;;;;10.07;5.80;;;;;;;16.09;55.02;98934.91;4119054;28;20891;-36
2022/04/13 05:21:09;;;;;;;6.60;5.07;;;;;;;17.05;52.89;98828.22;4116340;28;20928;-35
2022/04/13 05:23:10;;;;;;;8.63;4.87;;;;;;;16.38;54.29;98897.78;4122136;28;20723;-38
2022/04/13 05:25:15;;;;;;;8.23;5.07;;;;;;;16.93;52.36;98846.13;4107963;28;20293;-32
2022/04/13 05:27:16;;;;;;;6.97;4.07;;;;;;;16.45;53.18;98900.41;4111306;28;20234;-32
2022/04/13 05:29:18;;;;;;;7.60;4.27;;;;;;;16.59;53.24;98906.53;4118444;28;20238;-33
2022/04/13 05:31:20;;;;;;;7.70;4.00;;;;;;;15.13;55.41;98984.66;4113965;28;20234;-34
2022/04/13 05:33:22;;;;;;;8.37;4.77;;;;;;;15.42;56.95;98978.03;4111899;28;20234;-36
2022/04/13 05:35:27;;;;;;;10.37;6.63;;;;;;;16.93;53.29;98838.06;4120580;28;20229;-35
2022/04/13 05:37:29;;;;;;;11.67;5.93;;;;;;;17.63;50.88;98783.91;4118195;28;20347;-32
2022/04/13 05:39:31;;;;;;;7.33;4.27;;;;;;;17.64;50.78;98808.91;4113266;28;20704;-34
2022/04/13 05:41:33;;;;;;;5.67;3.63;;;;;;;17.58;50.08;98828.63;4118880;28;20239;-34
2022/04/13 05:43:36;;;;;;;6.70;4.17;;;;;;;17.45;49.97;98841.22;4117195;28;20708;-36
2022/04/13 05:45:37;;;;;;;10.00;4.73;;;;;;;17.21;51.82;98871.63;4117225;28;20683;-36
2022/04/13 05:47:39;;;;;;;7.03;4.07;;;;;;;17.37;51.47;98868.38;4127159;28;20288;-35
2022/04/13 05:49:41;;;;;;;9.57;4.37;;;;;;;17.64;50.10;98857.31;4128438;28;20230;-33
2022/04/13 05:51:42;;;;;;;5.17;3.97;;;;;;;18.11;49.42;98819.03;4121737;28;20579;-36
2022/04/13 05:53:44;;;;;;;7.53;4.23;;;;;;;18.11;49.09;98824.41;4130868;28;20650;-31
2022/04/13 05:55:46;;;;;;;11.30;4.37;;;;;;;18.20;49.27;98821.13;4124952;28;21056;-37
2022/04/13 05:57:48;;;;;;;7.50;5.10;;;;;;;18.11;49.62;98827.09;4126109;28;20237;-36
2022/04/13 05:59:49;;;;;;;7.93;5.13;;;;;;;17.86;50.39;98841.50;4120745;28;20269;-37
2022/04/13 06:01:51;;;;;;;6.80;4.13;;;;;;;18.07;50.19;98829.44;4124477;28;20233;-35
2022/04/13 06:03:53;;;;;;;6.57;4.57;;;;;;;18.09;50.67;98831.84;4128310;28;20258;-34
2022/04/13 06:05:55;;;;;;;7.17;4.80;;;;;;;17.98;51.30;98849.59;4122203;28;20244;-33
2022/04/13 06:07:56;;;;;;;8.53;4.67;;;;;;;18.09;50.98;98831.84;4116996;28;20238;-37
2022/04/13 06:10:02;;;;;;;12.30;5.47;;;;;;;17.81;51.43;98857.50;4121000;28;20264;-32
2022/04/13 06:12:04;;;;;;;9.10;5.30;;;;;;;17.80;51.36;98854.00;4119701;28;20281;-32
2022/04/13 06:14:06;;;;;;;10.70;5.97;;;;;;;17.54;51.54;98898.16;4122532;28;21251;-37
2022/04/13 06:16:08;;;;;;;9.20;5.43;;;;;;;17.52;51.51;98894.88;4125089;28;20230;-34
2022/04/13 06:18:10;;;;;;;12.13;6.43;;;;;;;17.64;51.57;98890.38;4126863;28;20240;-35
2022/04/13 06:20:14;;;;;;;7.80;5.70;;;;;;;16.67;53.56;98981.41;4124719;28;20296;-33
2022/04/13 06:22:16;;;;;;;14.00;7.57;;;;;;;14.83;58.57;99078.78;4127423;28;20517;-35
2022/04/13 06:24:17;;;;;;;16.07;10.27;;;;;;;15.08;60.13;99029.97;4125364;28;20276;-37
2022/04/13 06:26:19;;;;;;;16.90;10.67;;;;;;;15.98;57.41;98975.81;4112150;28;20669;-35
2022/04/13 06:28:21;;;;;;;16.47;12.37;;;;;;;17.32;54.14;98868.25;4126081;28;20287;-32
2022/04/13 06:30:22;;;;;;;17.60;10.27;;;;;;;17.62;53.25;98857.53;4108770;28;20279;-34
2022/04/13 06:32:54;;;;;;;9.33;6.97;;;;;;;18.02;51.78;98861.53;4126681;28;20253;-39
2022/04/13 06:34:58;;;;;;;8.07;6.23;;;;;;;18.19;51.24;98846.41;4109515;28;20297;-36
2022/04/13 06:37:00;;;;;;;10.73;6.80;;;;;;;17.89;51.07;98869.81;4127186;28;20234;-33
2022/04/13 06:39:02;;;;;;;10.50;7.10;;;;;;;18.09;51.52;98866.81;4124513;28;20230;-34
2022/04/13 06:41:03;;;;;;;10.57;7.03;;;;;;;17.88;51.26;98879.72;4128202;28;20249;-35
2022/04/13 06:43:10;;;;;;;12.33;7.73;;;;;;;17.67;51.63;98899.88;4122041;28;20234;-33
2022/04/13 06:45:14;;;;;;;15.03;8.70;;;;;;;17.99;51.58;98887.03;4115390;28;20225;-39
2022/04/13 06:47:16;;;;;;;15.97;10.27;;;;;;;17.68;53.13;98923.00;4116623;28;20273;-36
2022/04/13 06:49:18;;;;;;;17.97;11.03;;;;;;;17.12;54.62;98978.56;4115719;28;20295;-37
2022/04/13 06:51:20;;;;;;;15.37;8.47;;;;;;;14.01;62.56;99142.00;4121796;28;20230;-31
2022/04/13 06:53:21;;;;;;;8.73;6.10;;;;;;;14.83;62.57;99049.34;4120962;28;20237;-31
2022/04/13 06:55:23;;;;;;;12.20;6.57;;;;;;;15.04;62.57;99067.06;4116908;28;20229;-37
2022/04/13 06:57:25;;;;;;;10.83;6.13;;;;;;;16.80;58.09;98906.13;4116455;28;20238;-36
2022/04/13 06:59:33;;;;;;;10.90;7.03;;;;;;;17.27;54.83;98905.69;4117527;28;20228;-39
2022/04/13 07:01:34;;;;;;;10.93;6.20;;;;;;;15.44;59.19;99077.75;4126362;28;20230;-36
2022/04/13 07:03:36;;;;;;;9.60;5.50;;;;;;;14.55;61.00;99096.78;4120313;28;20230;-35
2022/04/13 07:05:39;;;;;;;9.20;5.80;;;;;;;14.95;60.00;99054.91;4116904;28;20285;-38
2022/04/13 07:07:41;;;;;;;8.80;6.00;;;;;;;16.54;57.09;98920.63;4107114;28;20230;-34
2022/04/13 07:09:43;;;;;;;9.47;5.73;;;;;;;16.93;56.02;98907.88;4116583;28;20303;-37
2022/04/13 07:11:44;;;;;;;7.90;5.57;;;;;;;17.34;53.91;98881.47;4115365;28;20238;-34
2022/04/13 07:13:46;;;;;;;8.23;5.20;;;;;;;17.63;53.03;98894.13;4117336;28;20237;-42
2022/04/13 07:15:49;;;;;;;8.97;5.10;;;;;;;17.29;53.75;98917.03;4111900;28;20249;-32
2022/04/13 07:17:51;;;;;;;10.77;5.30;;;;;;;16.89;54.26;98965.75;4112014;28;20254;-36
2022/04/13 07:19:53;;;;;;;10.47;5.37;;;;;;;16.55;55.55;98997.38;4123328;28;20348;-31
2022/04/13 07:21:55;;;;;;;11.43;5.80;;;;;;;17.26;53.83;98910.25;4118442;28;20246;-35
2022/04/13 07:24:01;;;;;;;8.00;5.17;;;;;;;16.78;53.98;98961.91;4111433;28;20263;-35
2022/04/13 07:26:03;;;;;;;9.40;5.33;;;;;;;17.97;51.68;98893.66;4128109;28;20267;-32
2022/04/13 07:28:05;;;;;;;9.90;5.10;;;;;;;17.55;53.15;98923.16;4114243;28;20249;-37
2022/04/13 07:30:08;;;;;;;7.13;5.10;;;;;;;18.33;49.98;98892.75;4113386;28;21059;-34
2022/04/13 07:32:10;;;;;;;10.17;4.90;;;;;;;18.86;48.29;98876.78;4110271;28;20234;-35
2022/04/13 07:34:11;;;;;;;13.43;5.10;;;;;;;18.13;49.99;98911.06;4128200;28;20233;-34
2022/04/13 07:36:13;;;;;;;6.30;4.77;;;;;;;18.72;49.20;98890.44;4124403;28;20345;-35
2022/04/13 07:38:15;;;;;;;11.67;4.90;;;;;;;19.44;47.08;98856.22;4129173;28;20230;-32
2022/04/13 07:40:17;;;;;;;7.77;4.80;;;;;;;19.28;47.06;98861.25;4126693;28;20241;-33
2022/04/13 07:42:23;;;;;;;12.53;4.30;;;;;;;19.53;45.47;98865.53;4129146;28;20222;-36
2022/04/13 07:44:24;;;;;;;7.13;3.90;;;;;;;19.17;46.61;98885.53;4127517;28;20234;-34
2022/04/13 07:46:46;;;;;;;11.37;3.97;;;;;;;18.98;48.39;98891.06;4128675;28;20257;-39
2022/04/13 07:48:48;;;;;;;5.63;3.93;;;;;;;18.10;51.31;98962.63;4131511;28;20295;-30
2022/04/13 07:50:49;;;;;;;8.23;4.30;;;;;;;;;;4131009;28;20242;-32
2022/04/13 07:52:51;;;;;;;9.07;4.37;;;;;;;17.62;51.14;98991.94;4130795;28;20244;-33
2022/04/13 07:54:53;;;;;;;7.60;5.03;;;;;;;18.06;52.54;98964.13;4125712;28;20226;-34
2022/04/13 07:56:55;;;;;;;8.87;4.87;;;;;;;16.66;55.07;99084.47;4129288;28;20281;-34
2022/04/13 07:58:56;;;;;;;10.87;4.60;;;;;;;18.02;51.93;98964.56;4129827;28;21168;-38
2022/04/13 08:00:58;;;;;;;10.27;5.20;;;;;;;16.43;54.16;99091.13;4127277;28;20801;-33
2022/04/13 08:03:00;;;;;;;10.90;4.80;;;;;;;16.85;53.74;99055.84;4129589;28;20783;-35
2022/04/13 08:05:02;;;;;;;8.63;4.53;;;;;;;17.46;52.13;98997.88;4127047;28;20232;-34
2022/04/13 08:07:04;;;;;;;5.93;3.57;;;;;;;17.36;50.09;99009.19;4132075;28;20679;-38
2022/04/13 08:09:06;;;;;;;6.30;3.90;;;;;;;18.53;49.71;98937.38;4129221;28;20287;-36
2022/04/13 08:11:08;;;;;;;9.37;4.03;;;;;;;19.12;49.17;98910.53;4125410;28;20242;-37
2022/04/13 08:13:09;;;;;;;6.93;3.27;;;;;;;16.72;50.12;99086.25;4129930;28;20236;-35
2022/04/13 08:15:11;;;;;;;8.13;3.63;;;;;;;18.54;49.66;98942.53;4126050;28;20230;-34
2022/04/13 08:17:14;;;;;;;4.87;3.40;;;;;;;18.48;51.75;98959.59;4129131;28;20660;-39
2022/04/13 08:19:16;;;;;;;5.90;4.27;;;;;;;17.12;55.33;99053.78;4124875;28;20261;-36
2022/04/13 08:21:17;;;;;;;6.33;4.13;;;;;;;18.02;53.65;98980.72;4129076;28;20296;-37
2022/04/13 08:23:19;;;;;;;7.50;4.57;;;;;;;16.19;55.83;99120.31;4125887;28;20230;-33
2022/04/13 08:25:21;;;;;;;8.17;4.83;;;;;;;17.79;53.63;98965.28;4129371;28;20230;-35
2022/04/13 08:27:22;;;;;;;9.23;4.50;;;;;;;17.80;53.93;98964.22;4118243;28;20934;-33
2022/04/13 08:29:25;;;;;;;8.97;4.60;;;;;;;18.64;51.01;98923.09;4127553;28;20233;-35
2022/04/13 08:31:26;;;;;;;7.33;4.57;;;;;;;18.82;49.58;98906.06;4124235;28;20265;-39
2022/04/13 08:33:28;;;;;;;7.60;3.93;;;;;;;17.32;50.81;99044.75;4127287;28;20455;-33
2022/04/13 08:35:30;;;;;;;7.17;4.07;;;;;;;18.51;50.92;98956.47;4129292;28;20245;-36
2022/04/13 08:37:33;;;;;;;10.47;4.00;;;;;;;17.23;51.87;99049.56;4124997;28;20225;-32
2022/04/13 08:39:40;;;;;;;5.83;3.90;;;;;;;17.29;51.67;99060.28;4127188;28;20238;-34
2022/04/13 08:41:51;;;;;;;8.67;4.40;;;;;;;17.92;52.17;98964.28;4121632;28;20261;-36
2022/04/13 08:44:04;;;;;;;8.43;3.80;;;;;;;17.85;53.20;98983.19;4124880;28;20234;-35
2022/04/13 08:46:11;;;;;;;6.23;3.43;;;;;;;17.61;52.87;99006.41;4120463;28;20237;-36
2022/04/13 08:48:19;;;;;;;6.43;4.00;;;;;;;18.50;50.28;98932.47;4126769;28;20234;-35
2022/04/13 08:50:21;;;;;;;4.40;3.40;;;;;;;18.29;50.59;98926.56;4127268;28;20226;-31
2022/04/13 08:52:33;;;;;;;6.10;3.30;;;;;;;20.03;45.25;98889.16;4129798;28;20226;-33
2022/04/13 08:54:44;;;;;;;5.97;3.70;;;;;;;20.80;44.90;98849.94;4124807;28;20648;-33
2022/04/13 08:56:49;;;;;;;6.87;3.40;;;;;;;18.89;47.46;98970.59;4124968;28;20232;-35
2022/04/13 08:59:35;;;;;;;5.23;3.70;;;;;;;19.26;47.93;98905.69;4133475;28;20319;-32
2022/04/13 09:01:59;;;;;;;7.47;3.70;;;;;;;19.84;47.43;98917.41;4126285;28;20317;-34
2022/04/13 09:04:07;;;;;;;4.90;3.27;;;;;;;19.48;48.15;98932.84;4123803;28;20292;-32
2022/04/13 09:06:10;;;;;;;8.33;3.83;;;;;;;19.21;48.93;98956.78;4128664;28;20233;-34
2022/04/13 09:08:35;;;;;;;5.77;3.30;;;;;;;20.05;45.67;98905.13;4127724;28;20230;-34
2022/04/13 09:10:39;;;;;;;6.67;3.37;;;;;;;19.63;46.57;98902.72;4127964;28;20773;-36
2022/04/13 09:12:42;;;;;;;8.80;4.22;;;;;;;18.78;47.82;98974.91;4125320;28;20238;-33
2022/04/13 09:14:45;;;;;;;9.13;4.07;;;;;;;19.49;47.42;98951.47;4124617;28;20289;-33
2022/04/13 09:16:47;;;;;;;6.20;3.50;;;;;;;18.79;46.50;98989.97;4124870;28;20731;-31
2022/04/13 09:18:49;;;;;;;7.93;3.27;;;;;;;19.56;46.70;98919.03;4126317;28;20290;-31
2022/04/13 09:20:50;;;;;;;7.47;3.40;;;;;;;20.03;46.42;98916.16;4125011;28;20234;-33
2022/04/13 09:22:54;;;;;;;5.72;3.20;;;;;;;19.22;46.15;98942.25;4122465;28;20246;-31
2022/04/13 09:24:57;;;;;;;8.50;3.03;;;;;;;19.54;45.86;98944.53;4128382;28;20291;-33
2022/04/13 09:26:59;;;;;;;6.30;3.30;;;;;;;19.77;44.84;98919.41;4122666;28;20707;-37
2022/04/13 09:29:01;;;;;;;4.00;2.70;;;;;;;20.55;45.03;98915.19;4128496;28;20226;-34
2022/04/13 09:31:04;;;;;;;11.03;3.20;;;;;;;20.98;42.86;98896.69;4165620;23;20233;-31
2022/04/13 09:33:06;;;;;;;5.70;2.83;;;;;;;20.97;43.17;98911.25;4154822;28;20224;-31
2022/04/13 09:35:08;;;;;;;7.70;3.20;;;;;;;21.13;43.43;98912.31;4154330;28;20237;-31
2022/04/13 09:37:11;;;;;;;4.67;2.90;;;;;;;21.82;41.18;98870.44;4154676;28;20260;-31